createdAt,value
2018-02-22T00:01:15.921Z,1.50
2018-02-22T00:03:45.521Z,1.40
2018-02-22T00:06:13.465Z,1.40
2018-02-22T00:08:41.890Z,1.50
2018-02-22T00:11:10.098Z,1.50
2018-02-22T00:13:38.028Z,1.50
2018-02-22T00:16:05.966Z,1.50
2018-02-22T00:18:34.263Z,1.50
2018-02-22T00:21:03.013Z,1.40
2018-02-22T00:23:31.759Z,1.40
2018-02-22T00:25:59.646Z,1.40
2018-02-22T00:28:27.648Z,1.40
2018-02-22T00:30:55.746Z,1.40
2018-02-22T00:33:24.467Z,1.30
2018-02-22T00:35:53.207Z,1.30
2018-02-22T00:38:21.545Z,1.20
2018-02-22T00:40:49.528Z,1.20
2018-02-22T00:43:18.272Z,1.20
2018-02-22T00:45:46.237Z,1.20
2018-02-22T00:48:14.172Z,1.20
2018-02-22T00:50:42.139Z,1.20
2018-02-22T00:53:10.297Z,1.20
2018-02-22T00:55:38.516Z,1.20
2018-02-22T00:58:06.729Z,1.30
2018-02-22T01:00:35.108Z,1.30
2018-02-22T01:03:03.760Z,1.20
2018-02-22T01:05:32.618Z,1.10
2018-02-22T01:08:00.739Z,1.10
2018-02-22T01:10:33.813Z,1.10
2018-02-22T01:13:01.831Z,1.10
2018-02-22T01:15:29.805Z,1.10
2018-02-22T01:17:59.601Z,1.10
2018-02-22T01:20:27.431Z,1.10
2018-02-22T01:22:55.489Z,1.10
2018-02-22T01:25:23.540Z,1.10
2018-02-22T01:27:51.540Z,1.10
2018-02-22T01:30:19.458Z,1.10
2018-02-22T01:32:47.627Z,1.00
2018-02-22T01:35:16.589Z,1.00
2018-02-22T01:37:44.614Z,1.00
2018-02-22T01:40:12.910Z,1.00
2018-02-22T01:42:41.265Z,1.00
2018-02-22T01:45:09.251Z,1.00
2018-02-22T01:47:37.988Z,0.90
2018-02-22T01:50:06.100Z,0.90
2018-02-22T01:52:34.057Z,0.90
2018-02-22T01:55:03.720Z,0.90
2018-02-22T01:57:31.627Z,0.90
2018-02-22T01:59:59.701Z,0.80
2018-02-22T02:02:28.445Z,0.80
2018-02-22T02:04:56.538Z,0.70
2018-02-22T02:07:24.588Z,0.80
2018-02-22T02:09:52.594Z,0.80
2018-02-22T02:12:20.548Z,0.80
2018-02-22T02:14:49.213Z,0.80
2018-02-22T02:17:17.226Z,0.80
2018-02-22T02:19:46.126Z,0.80
2018-02-22T02:22:14.273Z,0.80
2018-02-22T02:24:42.409Z,0.90
2018-02-22T02:27:10.306Z,0.80
2018-02-22T02:29:39.108Z,0.80
2018-02-22T02:32:07.067Z,0.80
2018-02-22T02:34:35.393Z,0.70
2018-02-22T02:37:03.402Z,0.70
2018-02-22T02:39:31.284Z,0.60
2018-02-22T02:42:00.236Z,0.70
2018-02-22T02:44:29.134Z,0.60
2018-02-22T02:46:57.981Z,0.50
2018-02-22T02:49:26.830Z,0.70
2018-02-22T02:51:55.151Z,0.70
2018-02-22T02:54:23.152Z,0.70
2018-02-22T02:56:51.080Z,0.60
2018-02-22T02:59:18.958Z,0.70
2018-02-22T03:01:46.983Z,0.70
2018-02-22T03:04:15.130Z,0.70
2018-02-22T03:06:43.106Z,0.60
2018-02-22T03:09:11.312Z,0.60
2018-02-22T03:11:39.239Z,0.60
2018-02-22T03:14:07.222Z,0.60
2018-02-22T03:16:35.424Z,0.60
2018-02-22T03:19:03.359Z,0.50
2018-02-22T03:21:31.319Z,0.40
2018-02-22T03:23:59.355Z,0.40
2018-02-22T03:26:27.578Z,0.30
2018-02-22T03:28:55.609Z,0.30
2018-02-22T03:31:23.559Z,0.20
2018-02-22T03:33:52.299Z,0.20
2018-02-22T03:36:20.546Z,0.20
2018-02-22T03:38:49.438Z,0.30
2018-02-22T03:41:17.370Z,0.30
2018-02-22T03:43:46.310Z,0.20
2018-02-22T03:46:14.418Z,0.20
2018-02-22T03:48:43.425Z,0.30
2018-02-22T03:51:11.402Z,0.20
2018-02-22T03:53:39.769Z,0.20
2018-02-22T03:56:07.972Z,0.20
2018-02-22T03:58:35.998Z,0.30
2018-02-22T04:01:03.993Z,0.20
2018-02-22T04:03:32.911Z,0.20
2018-02-22T04:06:00.797Z,0.20
2018-02-22T04:08:28.908Z,0.20
2018-02-22T04:10:57.802Z,0.20
2018-02-22T04:13:25.900Z,0.20
2018-02-22T04:15:54.876Z,0.10
2018-02-22T04:18:23.658Z,0.10
2018-02-22T04:20:51.704Z,0.10
2018-02-22T04:23:20.066Z,0.10
2018-02-22T04:25:48.080Z,-0.10
2018-02-22T04:28:16.391Z,0.00
2018-02-22T04:30:44.909Z,0.00
2018-02-22T04:33:13.036Z,0.10
2018-02-22T04:35:40.991Z,0.20
2018-02-22T04:38:09.015Z,0.10
2018-02-22T04:40:36.930Z,0.10
2018-02-22T04:43:06.457Z,0.10
2018-02-22T04:45:34.574Z,0.10
2018-02-22T04:48:02.515Z,0.10
2018-02-22T04:50:31.252Z,-0.10
2018-02-22T04:53:00.060Z,-0.10
2018-02-22T04:55:27.955Z,0.00
2018-02-22T04:57:58.013Z,0.10
2018-02-22T05:00:25.740Z,0.10
2018-02-22T05:02:53.485Z,0.00
2018-02-22T05:05:21.181Z,-0.10
2018-02-22T05:07:49.100Z,-0.20
2018-02-22T05:10:17.640Z,-0.30
2018-02-22T05:12:45.488Z,-0.30
2018-02-22T05:15:13.265Z,-0.20
2018-02-22T05:17:40.965Z,-0.20
2018-02-22T05:20:09.231Z,-0.20
2018-02-22T05:22:36.948Z,-0.10
2018-02-22T05:25:04.797Z,-0.20
2018-02-22T05:27:32.758Z,-0.30
2018-02-22T05:30:00.455Z,-0.40
2018-02-22T05:32:28.174Z,-0.40
2018-02-22T05:34:56.747Z,-0.40
2018-02-22T05:37:24.460Z,-0.40
2018-02-22T05:39:52.170Z,-0.30
2018-02-22T05:42:20.008Z,-0.40
2018-02-22T05:44:47.958Z,-0.40
2018-02-22T05:47:20.434Z,-0.50
2018-02-22T05:49:48.468Z,-0.40
2018-02-22T05:52:16.116Z,-0.30
2018-02-22T05:54:45.338Z,-0.20
2018-02-22T05:57:13.517Z,-0.20
2018-02-22T05:59:41.241Z,-0.40
2018-02-22T06:02:10.209Z,-0.50
2018-02-22T06:04:38.921Z,-0.50
2018-02-22T06:07:08.612Z,-0.50
2018-02-22T06:09:37.189Z,-0.60
2018-02-22T06:12:05.204Z,-0.60
2018-02-22T06:14:33.365Z,-0.60
2018-02-22T06:17:01.219Z,-0.60
2018-02-22T06:19:29.111Z,-0.60
2018-02-22T06:21:56.822Z,-0.60
2018-02-22T06:24:24.582Z,-0.60
2018-02-22T06:26:53.088Z,-0.50
2018-02-22T06:29:20.973Z,-0.50
2018-02-22T06:31:49.483Z,-0.50
2018-02-22T06:34:17.268Z,-0.40
2018-02-22T06:36:45.476Z,-0.50
2018-02-22T06:39:13.376Z,-0.40
2018-02-22T06:41:41.664Z,-0.50
2018-02-22T06:44:09.354Z,-0.40
2018-02-22T06:46:37.512Z,-0.50
2018-02-22T06:49:05.350Z,-0.40
2018-02-22T06:51:33.170Z,-0.40
2018-02-22T06:54:01.133Z,-0.40
2018-02-22T06:56:30.492Z,-0.30
2018-02-22T06:58:58.207Z,-0.40
2018-02-22T07:01:26.013Z,-0.40
2018-02-22T07:03:53.979Z,-0.40
2018-02-22T07:06:22.545Z,-0.40
2018-02-22T07:08:50.272Z,-0.40
2018-02-22T07:11:18.454Z,-0.40
2018-02-22T07:13:46.373Z,-0.30
2018-02-22T07:16:14.412Z,-0.30
2018-02-22T07:18:42.172Z,-0.30
2018-02-22T07:21:09.916Z,-0.30
2018-02-22T07:23:39.527Z,-0.30
2018-02-22T07:26:07.376Z,-0.30
2018-02-22T07:28:35.199Z,-0.20
2018-02-22T07:31:03.704Z,-0.30
2018-02-22T07:33:31.557Z,-0.40
2018-02-22T07:35:59.318Z,-0.20
2018-02-22T07:38:27.061Z,-0.10
2018-02-22T07:40:55.540Z,0.10
2018-02-22T07:43:24.253Z,0.00
2018-02-22T07:45:51.992Z,0.00
2018-02-22T07:48:19.810Z,0.10
2018-02-22T07:50:47.543Z,0.00
2018-02-22T07:53:24.929Z,-0.10
2018-02-22T07:55:52.655Z,-0.20
2018-02-22T07:58:20.446Z,0.00
2018-02-22T08:00:48.983Z,0.00
2018-02-22T08:03:17.560Z,0.10
2018-02-22T08:05:45.282Z,0.10
2018-02-22T08:08:13.114Z,0.10
2018-02-22T08:10:42.275Z,0.30
2018-02-22T08:13:10.150Z,0.30
2018-02-22T08:15:38.120Z,0.40
2018-02-22T08:18:05.886Z,0.40
2018-02-22T08:20:33.540Z,0.50
2018-02-22T08:23:01.419Z,0.50
2018-02-22T08:25:29.329Z,0.50
2018-02-22T08:28:00.064Z,0.60
2018-02-22T08:30:27.713Z,0.70
2018-02-22T08:32:56.459Z,0.80
2018-02-22T08:35:24.230Z,0.80
2018-02-22T08:37:51.887Z,0.90
2018-02-22T08:40:20.490Z,0.90
2018-02-22T08:42:49.152Z,0.90
2018-02-22T08:45:17.001Z,1.10
2018-02-22T08:47:46.147Z,1.10
2018-02-22T08:50:14.044Z,1.20
2018-02-22T08:52:41.925Z,1.40
2018-02-22T08:55:09.670Z,1.40
2018-02-22T08:57:37.726Z,1.30
2018-02-22T09:00:06.653Z,1.40
2018-02-22T09:02:34.406Z,1.40
2018-02-22T09:05:02.175Z,1.50
2018-02-22T09:07:29.849Z,1.70
2018-02-22T09:09:57.533Z,1.80
2018-02-22T09:12:25.257Z,2.00
2018-02-22T09:14:53.069Z,2.10
2018-02-22T09:17:21.173Z,2.00
2018-02-22T09:19:49.366Z,2.20
2018-02-22T09:22:17.087Z,2.30
2018-02-22T09:24:44.815Z,2.40
2018-02-22T09:27:12.509Z,2.40
2018-02-22T09:29:40.412Z,2.60
2018-02-22T09:32:09.250Z,2.70
2018-02-22T09:34:37.334Z,2.70
2018-02-22T09:37:05.818Z,2.80
2018-02-22T09:39:33.829Z,2.90
2018-02-22T09:42:01.772Z,2.90
2018-02-22T09:44:29.738Z,3.00
2018-02-22T09:46:58.346Z,3.40
2018-02-22T09:49:26.044Z,3.30
2018-02-22T09:51:53.776Z,3.30
2018-02-22T09:54:21.548Z,3.60
2018-02-22T09:56:49.233Z,3.80
2018-02-22T09:59:16.988Z,4.00
2018-02-22T10:01:45.512Z,4.40
2018-02-22T10:04:13.366Z,4.70
2018-02-22T10:06:41.293Z,5.00
2018-02-22T10:09:09.078Z,6.00
2018-02-22T10:11:38.060Z,8.70
2018-02-22T10:14:06.007Z,8.70
2018-02-22T10:16:33.671Z,9.90
2018-02-22T10:19:01.401Z,10.60
2018-02-22T10:21:29.114Z,11.00
2018-02-22T10:23:56.878Z,11.60
2018-02-22T10:26:24.546Z,11.70
2018-02-22T10:28:53.153Z,11.00
2018-02-22T10:31:20.864Z,11.20
2018-02-22T10:33:50.107Z,12.00
2018-02-22T10:36:18.345Z,12.60
2018-02-22T10:38:46.171Z,12.90
2018-02-22T10:41:13.926Z,13.20
2018-02-22T10:43:41.587Z,13.80
2018-02-22T10:46:09.327Z,14.40
2018-02-22T10:48:37.847Z,13.30
2018-02-22T10:51:06.297Z,13.60
2018-02-22T10:53:34.579Z,13.50
2018-02-22T10:56:02.661Z,14.10
2018-02-22T10:58:30.439Z,14.60
2018-02-22T11:01:03.616Z,15.10
2018-02-22T11:03:31.406Z,15.50
2018-02-22T11:05:59.120Z,15.60
2018-02-22T11:08:26.968Z,15.00
2018-02-22T11:10:54.790Z,14.80
2018-02-22T11:13:22.937Z,15.10
2018-02-22T11:15:50.657Z,15.40
2018-02-22T11:18:18.340Z,15.30
2018-02-22T11:20:46.204Z,15.10
2018-02-22T11:23:14.193Z,14.50
2018-02-22T11:25:42.185Z,14.30
2018-02-22T11:28:09.862Z,13.90
2018-02-22T11:30:38.481Z,14.20
2018-02-22T11:33:06.149Z,14.20
2018-02-22T11:35:33.869Z,14.90
2018-02-22T11:38:01.650Z,15.50
2018-02-22T11:40:30.297Z,15.10
2018-02-22T11:43:01.070Z,14.80
2018-02-22T11:45:29.719Z,14.60
2018-02-22T11:47:59.915Z,15.00
2018-02-22T11:50:27.665Z,15.00
2018-02-22T11:52:55.826Z,13.10
2018-02-22T11:55:23.465Z,13.10
2018-02-22T11:57:51.285Z,12.80
2018-02-22T12:00:19.926Z,12.80
2018-02-22T12:02:47.667Z,12.40
2018-02-22T12:05:15.574Z,12.00
2018-02-22T12:07:43.379Z,12.10
2018-02-22T12:10:11.630Z,12.20
2018-02-22T12:12:40.358Z,12.60
2018-02-22T12:15:08.813Z,12.80
2018-02-22T12:17:36.615Z,12.80
2018-02-22T12:20:05.870Z,12.90
2018-02-22T12:22:33.584Z,12.90
2018-02-22T12:25:01.266Z,12.50
2018-02-22T12:27:28.916Z,12.40
2018-02-22T12:29:56.623Z,12.20
2018-02-22T12:32:28.524Z,12.40
2018-02-22T12:34:57.261Z,12.10
2018-02-22T12:37:25.002Z,12.10
2018-02-22T12:39:52.906Z,12.00
2018-02-22T12:42:20.721Z,12.00
2018-02-22T12:44:48.524Z,12.10
2018-02-22T12:47:16.255Z,12.00
2018-02-22T12:49:44.069Z,11.10
2018-02-22T12:52:11.744Z,10.80
2018-02-22T12:54:40.386Z,11.40
2018-02-22T12:57:08.348Z,11.40
2018-02-22T12:59:36.082Z,11.90
2018-02-22T13:02:04.313Z,12.10
2018-02-22T13:04:32.211Z,12.50
2018-02-22T13:06:59.929Z,12.80
2018-02-22T13:09:28.619Z,13.00
2018-02-22T13:11:56.322Z,12.50
2018-02-22T13:14:24.300Z,11.80
2018-02-22T13:16:52.286Z,11.10
2018-02-22T13:22:26.984Z,10.00
2018-02-22T13:24:55.039Z,10.10
2018-02-22T13:27:23.813Z,11.70
2018-02-22T13:29:51.829Z,11.70
2018-02-22T13:32:19.593Z,12.60
2018-02-22T13:34:47.455Z,13.30
2018-02-22T13:37:27.070Z,13.10
2018-02-22T13:39:55.020Z,13.20
2018-02-22T13:42:23.565Z,12.90
2018-02-22T13:45:02.943Z,12.90
2018-02-22T13:47:30.667Z,13.10
2018-02-22T13:50:10.032Z,13.30
2018-02-22T13:52:38.729Z,12.60
2018-02-22T13:55:06.787Z,12.40
2018-02-22T13:57:34.868Z,12.50
2018-02-22T14:00:03.173Z,12.30
2018-02-22T14:02:32.206Z,11.50
2018-02-22T14:05:00.138Z,11.40
2018-02-22T14:07:28.150Z,10.70
2018-02-22T14:09:55.812Z,10.30
2018-02-22T14:12:24.769Z,10.00
2018-02-22T14:14:52.452Z,9.70
2018-02-22T14:17:20.604Z,9.50
2018-02-22T14:19:49.143Z,9.30
2018-02-22T14:22:16.884Z,9.30
2018-02-22T14:24:45.575Z,9.20
2018-02-22T14:27:13.381Z,9.30
2018-02-22T14:29:41.236Z,9.20
2018-02-22T14:32:08.927Z,9.00
2018-02-22T14:34:36.620Z,9.10
2018-02-22T14:37:04.371Z,8.80
2018-02-22T14:39:32.067Z,8.60
2018-02-22T14:41:59.812Z,8.40
2018-02-22T14:44:27.494Z,8.00
2018-02-22T14:46:56.344Z,7.90
2018-02-22T14:49:24.736Z,7.90
2018-02-22T14:51:52.483Z,7.60
2018-02-22T14:54:20.965Z,7.40
2018-02-22T14:56:53.932Z,7.20
2018-02-22T14:59:21.805Z,7.20
2018-02-22T15:01:50.414Z,7.10
2018-02-22T15:04:18.775Z,6.90
2018-02-22T15:06:47.434Z,6.90
2018-02-22T15:09:15.368Z,7.00
2018-02-22T15:11:44.024Z,7.00
2018-02-22T15:14:11.994Z,6.70
2018-02-22T15:16:39.708Z,6.50
2018-02-22T15:19:07.472Z,6.40
2018-02-22T15:21:35.485Z,6.40
2018-02-22T15:24:03.221Z,6.30
2018-02-22T15:26:31.941Z,6.40
2018-02-22T15:28:59.923Z,6.30
2018-02-22T15:31:27.618Z,6.20
2018-02-22T15:33:55.350Z,6.20
2018-02-22T15:36:23.049Z,6.20
2018-02-22T15:38:50.804Z,6.10
2018-02-22T15:41:18.550Z,6.10
2018-02-22T15:43:47.100Z,6.00
2018-02-22T15:46:15.367Z,6.00
2018-02-22T15:48:44.101Z,5.80
2018-02-22T15:51:12.787Z,5.80
2018-02-22T15:53:40.557Z,5.80
2018-02-22T15:56:09.649Z,5.90
2018-02-22T15:58:37.306Z,5.90
2018-02-22T16:01:05.047Z,5.80
2018-02-22T16:03:32.712Z,5.90
2018-02-22T16:06:00.437Z,5.80
2018-02-22T16:08:28.952Z,5.50
2018-02-22T16:11:00.382Z,5.50
2018-02-22T16:13:28.822Z,5.50
2018-02-22T16:15:56.552Z,5.50
2018-02-22T16:18:25.005Z,5.60
2018-02-22T16:20:53.465Z,5.50
2018-02-22T16:23:21.371Z,5.50
2018-02-22T16:25:49.154Z,5.40
2018-02-22T16:28:16.934Z,5.40
2018-02-22T16:30:44.965Z,5.20
2018-02-22T16:33:12.670Z,5.00
2018-02-22T16:35:41.313Z,5.10
2018-02-22T16:38:12.027Z,5.10
2018-02-22T16:40:40.659Z,5.00
2018-02-22T16:43:11.420Z,5.00
2018-02-22T16:45:50.895Z,5.00
2018-02-22T16:48:31.131Z,5.00
2018-02-22T16:50:59.676Z,4.90
2018-02-22T16:53:27.332Z,4.90
2018-02-22T16:55:56.161Z,4.90
2018-02-22T16:58:23.836Z,4.80
2018-02-22T17:00:51.654Z,4.70
2018-02-22T17:03:19.829Z,4.60
2018-02-22T17:05:48.112Z,4.60
2018-02-22T17:08:16.305Z,4.50
2018-02-22T17:10:44.453Z,4.40
2018-02-22T17:13:12.171Z,4.30
2018-02-22T17:15:39.902Z,4.30
2018-02-22T17:18:08.621Z,4.20
2018-02-22T17:20:36.328Z,4.30
2018-02-22T17:23:04.108Z,4.30
2018-02-22T17:25:32.212Z,4.30
2018-02-22T17:28:05.525Z,4.30
2018-02-22T17:30:38.942Z,4.30
2018-02-22T17:33:08.472Z,4.20
2018-02-22T17:35:53.454Z,4.10
2018-02-22T17:38:34.994Z,4.00
2018-02-22T17:41:06.370Z,4.00
2018-02-22T17:43:34.220Z,3.90
2018-02-22T17:46:02.808Z,3.90
2018-02-22T17:48:31.438Z,3.90
2018-02-22T17:50:59.190Z,3.90
2018-02-22T17:53:26.867Z,4.00
2018-02-22T17:55:54.632Z,3.90
2018-02-22T17:58:23.133Z,3.90
2018-02-22T18:01:03.541Z,3.80
2018-02-22T18:03:32.224Z,3.80
2018-02-22T18:05:59.979Z,3.90
2018-02-22T18:08:27.631Z,3.80
2018-02-22T18:10:56.308Z,3.70
2018-02-22T18:13:24.833Z,3.60
2018-02-22T18:15:53.344Z,3.60
2018-02-22T18:18:21.065Z,3.60
2018-02-22T18:20:48.736Z,3.60
2018-02-22T18:23:17.375Z,3.60
2018-02-22T18:25:46.290Z,3.50
2018-02-22T18:28:14.012Z,3.50
2018-02-22T18:30:41.730Z,3.60
2018-02-22T18:33:09.487Z,3.60
2018-02-22T18:35:37.866Z,3.40
2018-02-22T18:38:05.768Z,3.30
2018-02-22T18:40:41.184Z,3.10
2018-02-22T18:43:17.515Z,3.20
2018-02-22T18:45:47.277Z,3.20
2018-02-22T18:48:15.146Z,3.20
2018-02-22T18:50:42.899Z,3.10
2018-02-22T18:53:11.936Z,3.10
2018-02-22T18:58:14.984Z,3.00
2018-02-22T19:03:39.784Z,3.00
2018-02-22T19:06:08.445Z,3.00
2018-02-22T19:08:37.485Z,3.00
2018-02-22T19:11:07.365Z,3.00
2018-02-22T19:13:40.010Z,2.90
2018-02-22T19:16:09.221Z,2.90
2018-02-22T19:18:37.634Z,2.90
2018-02-22T19:21:06.925Z,2.90
2018-02-22T19:23:35.744Z,2.90
2018-02-22T19:26:05.085Z,2.90
2018-02-22T19:28:36.804Z,2.80
2018-02-22T19:31:05.700Z,2.80
2018-02-22T19:33:35.352Z,2.80
2018-02-22T19:36:04.740Z,2.70
2018-02-22T19:38:34.009Z,2.70
2018-02-22T19:41:05.856Z,2.60
2018-02-22T19:43:34.694Z,2.50
2018-02-22T19:46:04.255Z,2.40
2018-02-22T19:48:33.244Z,2.50
2018-02-22T19:51:04.035Z,2.40
2018-02-22T19:53:34.187Z,2.40
2018-02-22T19:56:05.926Z,2.40
2018-02-22T19:58:34.961Z,2.40
2018-02-22T20:01:04.821Z,2.40
2018-02-22T20:03:33.372Z,2.40
2018-02-22T20:06:02.361Z,2.30
2018-02-22T20:08:31.671Z,2.20
2018-02-22T20:11:04.043Z,2.30
2018-02-22T20:13:34.536Z,2.30
2018-02-22T20:16:03.923Z,2.30
2018-02-22T20:18:32.771Z,2.30
2018-02-22T20:21:02.152Z,2.10
2018-02-22T20:23:31.767Z,2.10
2018-02-22T20:26:05.655Z,2.10
2018-02-22T20:28:35.064Z,2.20
2018-02-22T20:31:06.656Z,2.20
2018-02-22T20:33:37.081Z,2.10
2018-02-22T20:36:08.131Z,2.10
2018-02-22T20:38:37.068Z,2.10
2018-02-22T20:41:09.448Z,2.10
2018-02-22T20:43:40.306Z,2.10
2018-02-22T20:46:15.760Z,2.00
2018-02-22T20:48:47.620Z,2.00
2018-02-22T20:51:20.194Z,1.90
2018-02-22T20:53:52.457Z,1.80
2018-02-22T20:56:21.179Z,1.90
2018-02-22T20:58:50.369Z,2.00
2018-02-22T21:01:18.209Z,1.90
2018-02-22T21:03:46.078Z,2.00
2018-02-22T21:06:14.390Z,2.00
2018-02-22T21:08:42.358Z,2.00
2018-02-22T21:11:10.430Z,1.90
2018-02-22T21:13:39.784Z,1.80
2018-02-22T21:16:07.706Z,1.80
2018-02-22T21:18:36.992Z,1.90
2018-02-22T21:21:04.873Z,1.80
2018-02-22T21:23:33.147Z,1.90
2018-02-22T21:26:01.214Z,1.90
2018-02-22T21:28:29.897Z,1.90
2018-02-22T21:30:58.789Z,1.90
2018-02-22T21:33:27.473Z,1.80
2018-02-22T21:35:55.129Z,1.80
2018-02-22T21:38:23.267Z,1.90
2018-02-22T21:40:51.592Z,1.90
2018-02-22T21:43:19.846Z,1.80
2018-02-22T21:45:47.730Z,1.70
2018-02-22T21:48:16.017Z,1.80
2018-02-22T21:50:44.685Z,1.80
2018-02-22T21:53:12.760Z,1.80
2018-02-22T21:55:40.668Z,1.70
2018-02-22T21:58:10.644Z,1.60
2018-02-22T22:00:39.526Z,1.70
2018-02-22T22:03:07.582Z,1.60
2018-02-22T22:05:35.771Z,1.70
2018-02-22T22:08:04.674Z,1.60
2018-02-22T22:10:33.689Z,1.50
2018-02-22T22:13:01.446Z,1.50
2018-02-22T22:15:30.774Z,1.40
2018-02-22T22:18:00.272Z,1.40
2018-02-22T22:20:28.705Z,1.30
2018-02-22T22:22:57.846Z,1.20
2018-02-22T22:25:26.679Z,1.20
2018-02-22T22:27:54.642Z,1.10
2018-02-22T22:30:22.461Z,1.10
2018-02-22T22:32:50.974Z,1.10
2018-02-22T22:35:18.671Z,1.10
2018-02-22T22:37:46.938Z,1.10
2018-02-22T22:40:15.205Z,1.20
2018-02-22T22:42:43.224Z,1.20
2018-02-22T22:45:11.359Z,1.10
2018-02-22T22:47:39.231Z,1.10
2018-02-22T22:50:07.292Z,1.20
2018-02-22T22:52:35.281Z,1.10
2018-02-22T22:55:04.164Z,1.20
2018-02-22T22:57:32.483Z,1.20
2018-02-22T23:00:00.422Z,1.20
2018-02-22T23:02:28.846Z,1.20
2018-02-22T23:04:58.848Z,1.10
2018-02-22T23:07:27.378Z,1.10
2018-02-22T23:09:56.278Z,1.00
2018-02-22T23:12:24.133Z,1.00
2018-02-22T23:14:51.972Z,1.10
2018-02-22T23:17:19.605Z,1.00
2018-02-22T23:19:48.588Z,0.90
2018-02-22T23:22:16.405Z,0.90
2018-02-22T23:24:44.105Z,0.90
2018-02-22T23:27:11.843Z,0.90
2018-02-22T23:29:39.509Z,0.90
2018-02-22T23:32:08.504Z,0.90
2018-02-22T23:34:36.480Z,0.90
2018-02-22T23:37:04.679Z,0.80
2018-02-22T23:39:33.339Z,0.90
2018-02-22T23:42:13.896Z,0.90
2018-02-22T23:44:41.585Z,0.80
2018-02-22T23:47:10.184Z,0.80
2018-02-22T23:49:40.058Z,0.70
2018-02-22T23:52:08.053Z,0.70
2018-02-22T23:54:37.007Z,0.70
2018-02-22T23:57:05.802Z,0.70
2018-02-22T23:59:33.517Z,0.70
